sensor_id;sensor_type;location;lat;lon;timestamp;P1;durP1;ratioP1;P2;durP2;ratioP2
62030;SDS011;62035;52.094;5.112;2023-02-28T00:01:28;9.32;;;2.97;;
62030;SDS011;62035;52.094;5.112;2023-02-28T00:03:56;5.25;;;2.72;;
62030;SDS011;62035;52.094;5.112;2023-02-28T00:06:25;3.53;;;2.05;;
62030;SDS011;62035;52.094;5.112;2023-02-28T00:08:53;10.95;;;3.30;;
62030;SDS011;62035;52.094;5.112;2023-02-28T00:11:21;8.88;;;2.65;;
62030;SDS011;62035;52.094;5.112;2023-02-28T00:13:49;5.47;;;2.60;;
62030;SDS011;62035;52.094;5.112;2023-02-28T00:16:17;8.60;;;2.67;;
62030;SDS011;62035;52.094;5.112;2023-02-28T00:18:46;7.65;;;2.40;;
62030;SDS011;62035;52.094;5.112;2023-02-28T00:21:14;4.25;;;2.45;;
62030;SDS011;62035;52.094;5.112;2023-02-28T00:23:44;4.10;;;2.20;;
62030;SDS011;62035;52.094;5.112;2023-02-28T00:26:12;9.88;;;2.28;;
62030;SDS011;62035;52.094;5.112;2023-02-28T00:28:39;5.38;;;2.50;;
62030;SDS011;62035;52.094;5.112;2023-02-28T00:31:07;6.40;;;1.92;;
62030;SDS011;62035;52.094;5.112;2023-02-28T00:33:35;5.22;;;2.50;;
62030;SDS011;62035;52.094;5.112;2023-02-28T00:36:06;4.75;;;2.15;;
62030;SDS011;62035;52.094;5.112;2023-02-28T00:38:37;11.40;;;2.42;;
62030;SDS011;62035;52.094;5.112;2023-02-28T00:41:08;6.53;;;2.70;;
62030;SDS011;62035;52.094;5.112;2023-02-28T00:43:37;3.85;;;2.08;;
62030;SDS011;62035;52.094;5.112;2023-02-28T00:46:06;5.20;;;2.63;;
62030;SDS011;62035;52.094;5.112;2023-02-28T00:48:35;4.95;;;2.60;;
62030;SDS011;62035;52.094;5.112;2023-02-28T00:51:03;4.20;;;2.33;;
62030;SDS011;62035;52.094;5.112;2023-02-28T00:53:31;3.58;;;2.00;;
62030;SDS011;62035;52.094;5.112;2023-02-28T00:55:59;5.05;;;2.17;;
62030;SDS011;62035;52.094;5.112;2023-02-28T00:58:28;4.95;;;1.98;;
62030;SDS011;62035;52.094;5.112;2023-02-28T01:00:56;4.72;;;2.10;;
62030;SDS011;62035;52.094;5.112;2023-02-28T01:03:24;5.97;;;2.15;;
62030;SDS011;62035;52.094;5.112;2023-02-28T01:05:51;4.75;;;2.25;;
62030;SDS011;62035;52.094;5.112;2023-02-28T01:08:19;4.57;;;1.92;;
62030;SDS011;62035;52.094;5.112;2023-02-28T01:10:47;4.32;;;2.20;;
62030;SDS011;62035;52.094;5.112;2023-02-28T01:13:15;5.07;;;1.92;;
62030;SDS011;62035;52.094;5.112;2023-02-28T01:15:46;6.28;;;2.30;;
62030;SDS011;62035;52.094;5.112;2023-02-28T01:18:18;4.22;;;2.17;;
62030;SDS011;62035;52.094;5.112;2023-02-28T01:20:46;6.13;;;2.03;;
62030;SDS011;62035;52.094;5.112;2023-02-28T01:23:13;3.90;;;2.00;;
62030;SDS011;62035;52.094;5.112;2023-02-28T01:25:41;4.28;;;2.00;;
62030;SDS011;62035;52.094;5.112;2023-02-28T01:28:08;7.40;;;2.13;;
62030;SDS011;62035;52.094;5.112;2023-02-28T01:30:36;4.43;;;2.05;;
62030;SDS011;62035;52.094;5.112;2023-02-28T01:33:05;4.13;;;1.92;;
62030;SDS011;62035;52.094;5.112;2023-02-28T01:35:33;12.77;;;2.45;;
62030;SDS011;62035;52.094;5.112;2023-02-28T01:38:01;3.72;;;2.10;;
62030;SDS011;62035;52.094;5.112;2023-02-28T01:40:29;3.75;;;2.00;;
62030;SDS011;62035;52.094;5.112;2023-02-28T01:42:57;4.63;;;2.00;;
62030;SDS011;62035;52.094;5.112;2023-02-28T01:45:26;5.25;;;1.67;;
62030;SDS011;62035;52.094;5.112;2023-02-28T01:47:57;4.68;;;2.03;;
62030;SDS011;62035;52.094;5.112;2023-02-28T01:50:34;6.75;;;2.42;;
62030;SDS011;62035;52.094;5.112;2023-02-28T01:53:09;10.57;;;2.42;;
62030;SDS011;62035;52.094;5.112;2023-02-28T01:55:42;6.40;;;2.60;;
62030;SDS011;62035;52.094;5.112;2023-02-28T01:58:17;7.20;;;2.67;;
62030;SDS011;62035;52.094;5.112;2023-02-28T02:00:44;6.15;;;2.45;;
62030;SDS011;62035;52.094;5.112;2023-02-28T02:03:13;10.60;;;2.22;;
62030;SDS011;62035;52.094;5.112;2023-02-28T02:05:47;4.13;;;2.40;;
62030;SDS011;62035;52.094;5.112;2023-02-28T02:08:15;6.43;;;2.50;;
62030;SDS011;62035;52.094;5.112;2023-02-28T02:10:47;3.88;;;2.20;;
62030;SDS011;62035;52.094;5.112;2023-02-28T02:13:29;5.07;;;2.83;;
62030;SDS011;62035;52.094;5.112;2023-02-28T02:16:16;5.03;;;2.92;;
62030;SDS011;62035;52.094;5.112;2023-02-28T02:19:03;4.30;;;2.10;;
62030;SDS011;62035;52.094;5.112;2023-02-28T02:22:07;3.58;;;2.38;;
62030;SDS011;62035;52.094;5.112;2023-02-28T02:25:09;8.50;;;2.20;;
62030;SDS011;62035;52.094;5.112;2023-02-28T02:27:48;7.50;;;2.88;;
62030;SDS011;62035;52.094;5.112;2023-02-28T02:34:36;3.03;;;1.80;;
62030;SDS011;62035;52.094;5.112;2023-02-28T02:37:14;5.28;;;2.17;;
62030;SDS011;62035;52.094;5.112;2023-02-28T02:39:59;9.43;;;2.15;;
62030;SDS011;62035;52.094;5.112;2023-02-28T02:42:36;4.65;;;2.47;;
62030;SDS011;62035;52.094;5.112;2023-02-28T02:45:12;6.57;;;2.03;;
62030;SDS011;62035;52.094;5.112;2023-02-28T02:47:48;7.95;;;2.20;;
62030;SDS011;62035;52.094;5.112;2023-02-28T02:50:19;4.88;;;1.90;;
62030;SDS011;62035;52.094;5.112;2023-02-28T02:52:55;4.13;;;2.25;;
62030;SDS011;62035;52.094;5.112;2023-02-28T02:55:28;3.92;;;2.03;;
62030;SDS011;62035;52.094;5.112;2023-02-28T02:58:02;4.00;;;1.92;;
62030;SDS011;62035;52.094;5.112;2023-02-28T03:00:35;7.28;;;2.28;;
62030;SDS011;62035;52.094;5.112;2023-02-28T03:03:09;4.35;;;2.13;;
62030;SDS011;62035;52.094;5.112;2023-02-28T03:05:41;7.30;;;2.25;;
62030;SDS011;62035;52.094;5.112;2023-02-28T03:08:13;4.22;;;2.17;;
62030;SDS011;62035;52.094;5.112;2023-02-28T03:10:42;4.60;;;2.10;;
62030;SDS011;62035;52.094;5.112;2023-02-28T03:13:23;4.57;;;1.88;;
62030;SDS011;62035;52.094;5.112;2023-02-28T03:16:22;3.70;;;2.15;;
62030;SDS011;62035;52.094;5.112;2023-02-28T03:19:24;7.03;;;2.33;;
62030;SDS011;62035;52.094;5.112;2023-02-28T03:22:12;6.68;;;3.10;;
62030;SDS011;62035;52.094;5.112;2023-02-28T03:24:56;6.88;;;2.90;;
62030;SDS011;62035;52.094;5.112;2023-02-28T03:27:36;7.15;;;2.22;;
62030;SDS011;62035;52.094;5.112;2023-02-28T03:30:10;4.78;;;2.35;;
62030;SDS011;62035;52.094;5.112;2023-02-28T03:32:49;5.10;;;2.22;;
62030;SDS011;62035;52.094;5.112;2023-02-28T03:35:24;7.03;;;2.17;;
62030;SDS011;62035;52.094;5.112;2023-02-28T03:38:03;6.35;;;2.30;;
62030;SDS011;62035;52.094;5.112;2023-02-28T03:40:41;5.07;;;2.30;;
62030;SDS011;62035;52.094;5.112;2023-02-28T03:43:17;6.28;;;2.28;;
62030;SDS011;62035;52.094;5.112;2023-02-28T03:45:51;5.00;;;2.60;;
62030;SDS011;62035;52.094;5.112;2023-02-28T03:48:23;7.93;;;2.40;;
62030;SDS011;62035;52.094;5.112;2023-02-28T03:50:58;5.28;;;2.67;;
62030;SDS011;62035;52.094;5.112;2023-02-28T03:53:35;4.10;;;2.20;;
62030;SDS011;62035;52.094;5.112;2023-02-28T03:56:11;8.80;;;2.75;;
62030;SDS011;62035;52.094;5.112;2023-02-28T03:58:47;5.13;;;2.60;;
62030;SDS011;62035;52.094;5.112;2023-02-28T04:01:24;8.98;;;2.60;;
62030;SDS011;62035;52.094;5.112;2023-02-28T04:03:57;7.57;;;2.65;;
62030;SDS011;62035;52.094;5.112;2023-02-28T04:06:24;4.88;;;2.42;;
62030;SDS011;62035;52.094;5.112;2023-02-28T04:08:54;8.75;;;2.40;;
62030;SDS011;62035;52.094;5.112;2023-02-28T04:11:23;4.40;;;2.63;;
62030;SDS011;62035;52.094;5.112;2023-02-28T04:14:00;6.85;;;2.70;;
62030;SDS011;62035;52.094;5.112;2023-02-28T04:16:29;6.28;;;2.60;;
62030;SDS011;62035;52.094;5.112;2023-02-28T04:18:57;10.18;;;2.92;;
62030;SDS011;62035;52.094;5.112;2023-02-28T04:21:27;5.45;;;3.00;;
62030;SDS011;62035;52.094;5.112;2023-02-28T04:23:57;5.05;;;2.75;;
62030;SDS011;62035;52.094;5.112;2023-02-28T04:26:27;9.50;;;2.70;;
62030;SDS011;62035;52.094;5.112;2023-02-28T04:28:56;4.97;;;2.55;;
62030;SDS011;62035;52.094;5.112;2023-02-28T04:31:24;5.10;;;2.80;;
62030;SDS011;62035;52.094;5.112;2023-02-28T04:33:52;4.90;;;2.80;;
62030;SDS011;62035;52.094;5.112;2023-02-28T04:36:19;6.85;;;3.00;;
62030;SDS011;62035;52.094;5.112;2023-02-28T04:38:48;6.38;;;3.00;;
62030;SDS011;62035;52.094;5.112;2023-02-28T04:41:19;6.50;;;3.20;;
62030;SDS011;62035;52.094;5.112;2023-02-28T04:43:48;8.93;;;3.80;;
62030;SDS011;62035;52.094;5.112;2023-02-28T04:46:17;5.00;;;3.03;;
62030;SDS011;62035;52.094;5.112;2023-02-28T04:48:45;10.07;;;3.08;;
62030;SDS011;62035;52.094;5.112;2023-02-28T04:51:13;5.70;;;3.00;;
62030;SDS011;62035;52.094;5.112;2023-02-28T04:53:44;5.47;;;2.97;;
62030;SDS011;62035;52.094;5.112;2023-02-28T04:56:12;10.63;;;3.10;;
62030;SDS011;62035;52.094;5.112;2023-02-28T04:58:44;10.02;;;3.00;;
62030;SDS011;62035;52.094;5.112;2023-02-28T05:01:16;7.05;;;3.00;;
62030;SDS011;62035;52.094;5.112;2023-02-28T05:03:48;6.50;;;2.90;;
62030;SDS011;62035;52.094;5.112;2023-02-28T05:06:17;7.97;;;2.85;;
62030;SDS011;62035;52.094;5.112;2023-02-28T05:08:46;7.65;;;2.65;;
62030;SDS011;62035;52.094;5.112;2023-02-28T05:11:15;6.28;;;2.55;;
62030;SDS011;62035;52.094;5.112;2023-02-28T05:13:47;5.72;;;2.80;;
62030;SDS011;62035;52.094;5.112;2023-02-28T05:16:16;13.25;;;2.80;;
62030;SDS011;62035;52.094;5.112;2023-02-28T05:18:44;6.88;;;2.67;;
62030;SDS011;62035;52.094;5.112;2023-02-28T05:21:22;6.55;;;2.45;;
62030;SDS011;62035;52.094;5.112;2023-02-28T05:23:56;6.18;;;2.38;;
62030;SDS011;62035;52.094;5.112;2023-02-28T05:26:28;4.22;;;2.38;;
62030;SDS011;62035;52.094;5.112;2023-02-28T05:28:57;8.35;;;2.75;;
62030;SDS011;62035;52.094;5.112;2023-02-28T05:31:25;6.25;;;2.80;;
62030;SDS011;62035;52.094;5.112;2023-02-28T05:33:53;4.75;;;2.40;;
62030;SDS011;62035;52.094;5.112;2023-02-28T05:36:20;6.88;;;2.72;;
62030;SDS011;62035;52.094;5.112;2023-02-28T05:38:48;5.95;;;2.60;;
62030;SDS011;62035;52.094;5.112;2023-02-28T05:41:18;4.90;;;2.50;;
62030;SDS011;62035;52.094;5.112;2023-02-28T05:43:47;3.20;;;2.08;;
62030;SDS011;62035;52.094;5.112;2023-02-28T05:46:17;4.40;;;2.40;;
62030;SDS011;62035;52.094;5.112;2023-02-28T05:48:45;4.32;;;2.30;;
62030;SDS011;62035;52.094;5.112;2023-02-28T05:51:14;4.47;;;2.42;;
62030;SDS011;62035;52.094;5.112;2023-02-28T05:53:43;4.18;;;2.22;;
62030;SDS011;62035;52.094;5.112;2023-02-28T05:56:11;8.73;;;2.63;;
62030;SDS011;62035;52.094;5.112;2023-02-28T05:58:39;5.35;;;2.40;;
62030;SDS011;62035;52.094;5.112;2023-02-28T06:03:59;7.43;;;2.70;;
62030;SDS011;62035;52.094;5.112;2023-02-28T06:06:28;4.05;;;2.65;;
62030;SDS011;62035;52.094;5.112;2023-02-28T06:08:57;5.32;;;2.70;;
62030;SDS011;62035;52.094;5.112;2023-02-28T06:11:24;7.60;;;2.80;;
62030;SDS011;62035;52.094;5.112;2023-02-28T06:13:53;6.13;;;2.78;;
62030;SDS011;62035;52.094;5.112;2023-02-28T06:16:23;4.60;;;2.50;;
62030;SDS011;62035;52.094;5.112;2023-02-28T06:18:52;6.25;;;3.03;;
62030;SDS011;62035;52.094;5.112;2023-02-28T06:21:21;4.88;;;2.75;;
62030;SDS011;62035;52.094;5.112;2023-02-28T06:23:51;5.10;;;3.40;;
62030;SDS011;62035;52.094;5.112;2023-02-28T06:26:18;6.50;;;3.00;;
62030;SDS011;62035;52.094;5.112;2023-02-28T06:28:46;5.32;;;3.20;;
62030;SDS011;62035;52.094;5.112;2023-02-28T06:31:15;4.88;;;3.20;;
62030;SDS011;62035;52.094;5.112;2023-02-28T06:33:46;5.40;;;3.72;;
62030;SDS011;62035;52.094;5.112;2023-02-28T06:36:16;6.25;;;3.28;;
62030;SDS011;62035;52.094;5.112;2023-02-28T06:38:44;5.78;;;3.67;;
62030;SDS011;62035;52.094;5.112;2023-02-28T06:41:17;7.35;;;3.38;;
62030;SDS011;62035;52.094;5.112;2023-02-28T06:43:44;9.52;;;3.58;;
62030;SDS011;62035;52.094;5.112;2023-02-28T06:46:13;8.13;;;4.00;;
62030;SDS011;62035;52.094;5.112;2023-02-28T06:48:42;6.93;;;3.55;;
62030;SDS011;62035;52.094;5.112;2023-02-28T06:51:13;6.28;;;3.38;;
62030;SDS011;62035;52.094;5.112;2023-02-28T06:53:43;6.90;;;3.83;;
62030;SDS011;62035;52.094;5.112;2023-02-28T06:56:11;14.45;;;3.88;;
62030;SDS011;62035;52.094;5.112;2023-02-28T06:58:45;7.53;;;3.83;;
62030;SDS011;62035;52.094;5.112;2023-02-28T07:01:14;8.02;;;3.85;;
62030;SDS011;62035;52.094;5.112;2023-02-28T07:03:41;6.88;;;4.05;;
62030;SDS011;62035;52.094;5.112;2023-02-28T07:06:09;7.68;;;3.75;;
62030;SDS011;62035;52.094;5.112;2023-02-28T07:08:39;10.07;;;4.10;;
62030;SDS011;62035;52.094;5.112;2023-02-28T07:11:07;6.82;;;3.85;;
62030;SDS011;62035;52.094;5.112;2023-02-28T07:13:35;7.28;;;3.30;;
62030;SDS011;62035;52.094;5.112;2023-02-28T07:16:03;6.80;;;4.28;;
62030;SDS011;62035;52.094;5.112;2023-02-28T07:18:34;7.90;;;3.85;;
62030;SDS011;62035;52.094;5.112;2023-02-28T07:21:03;7.90;;;4.40;;
62030;SDS011;62035;52.094;5.112;2023-02-28T07:23:34;6.57;;;4.18;;
62030;SDS011;62035;52.094;5.112;2023-02-28T07:26:03;7.82;;;4.20;;
62030;SDS011;62035;52.094;5.112;2023-02-28T07:28:32;6.80;;;4.00;;
62030;SDS011;62035;52.094;5.112;2023-02-28T07:31:02;8.20;;;3.95;;
62030;SDS011;62035;52.094;5.112;2023-02-28T07:33:31;7.13;;;4.20;;
62030;SDS011;62035;52.094;5.112;2023-02-28T07:36:01;10.93;;;4.30;;
62030;SDS011;62035;52.094;5.112;2023-02-28T07:38:28;7.30;;;4.05;;
62030;SDS011;62035;52.094;5.112;2023-02-28T07:40:57;7.85;;;4.07;;
62030;SDS011;62035;52.094;5.112;2023-02-28T07:43:25;10.02;;;4.38;;
62030;SDS011;62035;52.094;5.112;2023-02-28T07:45:52;9.05;;;4.20;;
62030;SDS011;62035;52.094;5.112;2023-02-28T07:48:20;7.95;;;4.57;;
62030;SDS011;62035;52.094;5.112;2023-02-28T07:50:53;11.45;;;4.57;;
62030;SDS011;62035;52.094;5.112;2023-02-28T07:53:22;8.90;;;4.00;;
62030;SDS011;62035;52.094;5.112;2023-02-28T07:55:49;9.45;;;4.13;;
62030;SDS011;62035;52.094;5.112;2023-02-28T07:58:18;16.60;;;4.00;;
62030;SDS011;62035;52.094;5.112;2023-02-28T08:00:46;9.98;;;4.43;;
62030;SDS011;62035;52.094;5.112;2023-02-28T08:03:14;9.13;;;4.10;;
62030;SDS011;62035;52.094;5.112;2023-02-28T08:05:45;10.07;;;4.30;;
62030;SDS011;62035;52.094;5.112;2023-02-28T08:08:13;7.07;;;4.10;;
62030;SDS011;62035;52.094;5.112;2023-02-28T08:10:41;10.93;;;4.00;;
62030;SDS011;62035;52.094;5.112;2023-02-28T08:13:09;8.45;;;4.43;;
62030;SDS011;62035;52.094;5.112;2023-02-28T08:15:39;8.40;;;3.88;;
62030;SDS011;62035;52.094;5.112;2023-02-28T08:18:07;8.02;;;4.50;;
62030;SDS011;62035;52.094;5.112;2023-02-28T08:20:35;9.25;;;4.35;;
62030;SDS011;62035;52.094;5.112;2023-02-28T08:23:03;9.00;;;4.20;;
62030;SDS011;62035;52.094;5.112;2023-02-28T08:25:30;5.45;;;3.63;;
62030;SDS011;62035;52.094;5.112;2023-02-28T08:27:58;10.05;;;4.15;;
62030;SDS011;62035;52.094;5.112;2023-02-28T08:30:25;8.93;;;4.50;;
62030;SDS011;62035;52.094;5.112;2023-02-28T08:32:54;9.32;;;4.47;;
62030;SDS011;62035;52.094;5.112;2023-02-28T08:35:22;6.78;;;4.30;;
62030;SDS011;62035;52.094;5.112;2023-02-28T08:37:50;9.60;;;5.07;;
62030;SDS011;62035;52.094;5.112;2023-02-28T08:40:18;7.18;;;4.53;;
62030;SDS011;62035;52.094;5.112;2023-02-28T08:42:45;10.20;;;4.40;;
62030;SDS011;62035;52.094;5.112;2023-02-28T08:45:14;7.82;;;4.57;;
62030;SDS011;62035;52.094;5.112;2023-02-28T08:47:42;7.80;;;4.65;;
62030;SDS011;62035;52.094;5.112;2023-02-28T08:50:11;15.57;;;4.97;;
62030;SDS011;62035;52.094;5.112;2023-02-28T08:52:41;9.63;;;4.28;;
62030;SDS011;62035;52.094;5.112;2023-02-28T08:55:09;8.38;;;4.30;;
62030;SDS011;62035;52.094;5.112;2023-02-28T08:57:37;6.93;;;3.70;;
62030;SDS011;62035;52.094;5.112;2023-02-28T09:00:05;7.53;;;4.10;;
62030;SDS011;62035;52.094;5.112;2023-02-28T09:02:39;5.40;;;3.65;;
62030;SDS011;62035;52.094;5.112;2023-02-28T09:05:08;4.85;;;2.97;;
62030;SDS011;62035;52.094;5.112;2023-02-28T09:07:38;9.10;;;3.50;;
62030;SDS011;62035;52.094;5.112;2023-02-28T09:10:06;9.68;;;3.40;;
62030;SDS011;62035;52.094;5.112;2023-02-28T09:12:35;3.97;;;2.33;;
62030;SDS011;62035;52.094;5.112;2023-02-28T09:15:03;4.32;;;2.53;;
62030;SDS011;62035;52.094;5.112;2023-02-28T09:17:32;6.43;;;2.08;;
62030;SDS011;62035;52.094;5.112;2023-02-28T09:20:00;5.75;;;2.60;;
62030;SDS011;62035;52.094;5.112;2023-02-28T09:22:29;3.38;;;2.20;;
62030;SDS011;62035;52.094;5.112;2023-02-28T09:24:56;9.35;;;2.33;;
62030;SDS011;62035;52.094;5.112;2023-02-28T09:27:24;7.88;;;2.53;;
62030;SDS011;62035;52.094;5.112;2023-02-28T09:29:51;4.28;;;2.45;;
62030;SDS011;62035;52.094;5.112;2023-02-28T09:32:19;4.53;;;2.67;;
62030;SDS011;62035;52.094;5.112;2023-02-28T09:34:46;4.30;;;3.13;;
62030;SDS011;62035;52.094;5.112;2023-02-28T09:37:14;4.75;;;2.42;;
62030;SDS011;62035;52.094;5.112;2023-02-28T09:39:43;3.75;;;2.15;;
62030;SDS011;62035;52.094;5.112;2023-02-28T09:42:13;3.75;;;2.30;;
62030;SDS011;62035;52.094;5.112;2023-02-28T09:44:50;2.80;;;2.08;;
62030;SDS011;62035;52.094;5.112;2023-02-28T09:47:21;6.47;;;2.25;;
62030;SDS011;62035;52.094;5.112;2023-02-28T09:50:06;8.90;;;2.60;;
62030;SDS011;62035;52.094;5.112;2023-02-28T09:52:50;3.40;;;2.50;;
62030;SDS011;62035;52.094;5.112;2023-02-28T09:55:20;4.20;;;2.10;;
62030;SDS011;62035;52.094;5.112;2023-02-28T09:57:56;4.05;;;2.25;;
62030;SDS011;62035;52.094;5.112;2023-02-28T10:00:27;5.28;;;2.47;;
62030;SDS011;62035;52.094;5.112;2023-02-28T10:03:15;5.43;;;2.35;;
62030;SDS011;62035;52.094;5.112;2023-02-28T10:05:56;3.53;;;1.85;;
62030;SDS011;62035;52.094;5.112;2023-02-28T10:08:36;7.05;;;2.75;;
62030;SDS011;62035;52.094;5.112;2023-02-28T10:11:14;4.53;;;2.30;;
62030;SDS011;62035;52.094;5.112;2023-02-28T10:13:49;5.32;;;2.15;;
62030;SDS011;62035;52.094;5.112;2023-02-28T10:16:28;4.95;;;2.20;;
62030;SDS011;62035;52.094;5.112;2023-02-28T10:19:03;4.15;;;1.90;;
62030;SDS011;62035;52.094;5.112;2023-02-28T10:21:39;3.67;;;1.98;;
62030;SDS011;62035;52.094;5.112;2023-02-28T10:24:16;5.00;;;1.90;;
62030;SDS011;62035;52.094;5.112;2023-02-28T10:27:00;5.45;;;2.30;;
62030;SDS011;62035;52.094;5.112;2023-02-28T10:29:40;3.97;;;2.13;;
62030;SDS011;62035;52.094;5.112;2023-02-28T10:32:13;3.45;;;2.00;;
62030;SDS011;62035;52.094;5.112;2023-02-28T10:34:45;2.42;;;1.65;;
62030;SDS011;62035;52.094;5.112;2023-02-28T10:37:22;3.50;;;2.00;;
62030;SDS011;62035;52.094;5.112;2023-02-28T10:39:50;5.68;;;2.13;;
62030;SDS011;62035;52.094;5.112;2023-02-28T10:42:25;4.05;;;2.05;;
62030;SDS011;62035;52.094;5.112;2023-02-28T10:45:06;3.92;;;2.30;;
62030;SDS011;62035;52.094;5.112;2023-02-28T10:47:41;3.78;;;1.58;;
62030;SDS011;62035;52.094;5.112;2023-02-28T10:50:26;5.07;;;1.90;;
62030;SDS011;62035;52.094;5.112;2023-02-28T10:53:07;3.42;;;1.88;;
62030;SDS011;62035;52.094;5.112;2023-02-28T10:55:58;4.90;;;1.45;;
62030;SDS011;62035;52.094;5.112;2023-02-28T10:58:30;3.35;;;1.85;;
62030;SDS011;62035;52.094;5.112;2023-02-28T11:01:14;2.72;;;1.70;;
62030;SDS011;62035;52.094;5.112;2023-02-28T11:03:44;3.28;;;1.80;;
62030;SDS011;62035;52.094;5.112;2023-02-28T11:06:14;2.97;;;1.60;;
62030;SDS011;62035;52.094;5.112;2023-02-28T11:08:46;3.67;;;1.70;;
62030;SDS011;62035;52.094;5.112;2023-02-28T11:11:18;4.07;;;2.75;;
62030;SDS011;62035;52.094;5.112;2023-02-28T11:13:51;3.35;;;2.13;;
62030;SDS011;62035;52.094;5.112;2023-02-28T11:16:30;3.53;;;1.67;;
62030;SDS011;62035;52.094;5.112;2023-02-28T11:19:01;2.22;;;1.50;;
62030;SDS011;62035;52.094;5.112;2023-02-28T11:21:32;3.17;;;1.70;;
62030;SDS011;62035;52.094;5.112;2023-02-28T11:24:22;3.65;;;1.90;;
62030;SDS011;62035;52.094;5.112;2023-02-28T11:26:54;3.00;;;1.85;;
62030;SDS011;62035;52.094;5.112;2023-02-28T11:29:24;2.15;;;1.77;;
62030;SDS011;62035;52.094;5.112;2023-02-28T11:32:02;3.92;;;1.83;;
62030;SDS011;62035;52.094;5.112;2023-02-28T11:34:40;3.92;;;1.83;;
62030;SDS011;62035;52.094;5.112;2023-02-28T11:37:13;2.25;;;1.63;;
62030;SDS011;62035;52.094;5.112;2023-02-28T11:39:45;4.00;;;1.90;;
62030;SDS011;62035;52.094;5.112;2023-02-28T11:42:21;2.72;;;1.65;;
62030;SDS011;62035;52.094;5.112;2023-02-28T11:45:15;4.03;;;1.88;;
62030;SDS011;62035;52.094;5.112;2023-02-28T11:47:56;3.30;;;1.60;;
62030;SDS011;62035;52.094;5.112;2023-02-28T11:50:42;8.88;;;1.83;;
62030;SDS011;62035;52.094;5.112;2023-02-28T11:53:33;2.90;;;1.50;;
62030;SDS011;62035;52.094;5.112;2023-02-28T11:56:19;2.83;;;1.45;;
62030;SDS011;62035;52.094;5.112;2023-02-28T11:59:04;3.80;;;1.83;;
62030;SDS011;62035;52.094;5.112;2023-02-28T12:02:00;2.90;;;1.63;;
62030;SDS011;62035;52.094;5.112;2023-02-28T12:04:49;2.42;;;1.50;;
62030;SDS011;62035;52.094;5.112;2023-02-28T12:07:31;3.22;;;1.85;;
62030;SDS011;62035;52.094;5.112;2023-02-28T12:10:16;3.83;;;1.60;;
62030;SDS011;62035;52.094;5.112;2023-02-28T12:12:53;4.70;;;1.90;;
62030;SDS011;62035;52.094;5.112;2023-02-28T12:15:49;2.85;;;1.77;;
62030;SDS011;62035;52.094;5.112;2023-02-28T12:18:56;3.83;;;2.10;;
62030;SDS011;62035;52.094;5.112;2023-02-28T12:21:44;5.53;;;2.08;;
62030;SDS011;62035;52.094;5.112;2023-02-28T12:24:44;4.68;;;2.13;;
62030;SDS011;62035;52.094;5.112;2023-02-28T12:27:29;3.17;;;2.00;;
62030;SDS011;62035;52.094;5.112;2023-02-28T12:30:04;2.38;;;1.73;;
62030;SDS011;62035;52.094;5.112;2023-02-28T12:32:44;4.90;;;1.50;;
62030;SDS011;62035;52.094;5.112;2023-02-28T12:35:18;3.47;;;1.60;;
62030;SDS011;62035;52.094;5.112;2023-02-28T12:37:55;5.45;;;1.70;;
62030;SDS011;62035;52.094;5.112;2023-02-28T12:40:32;3.90;;;1.98;;
62030;SDS011;62035;52.094;5.112;2023-02-28T12:43:12;3.03;;;2.00;;
62030;SDS011;62035;52.094;5.112;2023-02-28T12:45:44;4.15;;;2.00;;
62030;SDS011;62035;52.094;5.112;2023-02-28T12:48:19;3.67;;;1.70;;
62030;SDS011;62035;52.094;5.112;2023-02-28T12:50:55;7.22;;;1.83;;
62030;SDS011;62035;52.094;5.112;2023-02-28T12:53:25;2.97;;;1.60;;
62030;SDS011;62035;52.094;5.112;2023-02-28T12:56:07;2.42;;;1.48;;
62030;SDS011;62035;52.094;5.112;2023-02-28T12:58:43;2.90;;;1.70;;
62030;SDS011;62035;52.094;5.112;2023-02-28T13:01:25;3.38;;;1.80;;
62030;SDS011;62035;52.094;5.112;2023-02-28T13:04:54;3.58;;;1.77;;
62030;SDS011;62035;52.094;5.112;2023-02-28T13:07:52;3.15;;;1.90;;
62030;SDS011;62035;52.094;5.112;2023-02-28T13:10:41;3.60;;;1.60;;
62030;SDS011;62035;52.094;5.112;2023-02-28T13:13:13;5.60;;;1.65;;
62030;SDS011;62035;52.094;5.112;2023-02-28T13:16:00;4.75;;;1.73;;
62030;SDS011;62035;52.094;5.112;2023-02-28T13:18:34;2.63;;;1.63;;
62030;SDS011;62035;52.094;5.112;2023-02-28T13:21:05;4.63;;;1.90;;
62030;SDS011;62035;52.094;5.112;2023-02-28T13:29:57;2.55;;;1.67;;
62030;SDS011;62035;52.094;5.112;2023-02-28T13:32:28;6.28;;;1.80;;
62030;SDS011;62035;52.094;5.112;2023-02-28T13:35:13;2.85;;;1.60;;
62030;SDS011;62035;52.094;5.112;2023-02-28T13:38:09;3.38;;;1.58;;
62030;SDS011;62035;52.094;5.112;2023-02-28T13:40:49;2.95;;;1.75;;
62030;SDS011;62035;52.094;5.112;2023-02-28T13:43:17;4.03;;;2.20;;
62030;SDS011;62035;52.094;5.112;2023-02-28T13:48:37;2.65;;;1.65;;
62030;SDS011;62035;52.094;5.112;2023-02-28T13:54:12;5.97;;;1.73;;
62030;SDS011;62035;52.094;5.112;2023-02-28T13:57:01;2.67;;;1.70;;
62030;SDS011;62035;52.094;5.112;2023-02-28T13:59:50;2.83;;;1.60;;
62030;SDS011;62035;52.094;5.112;2023-02-28T14:05:42;2.33;;;1.45;;
62030;SDS011;62035;52.094;5.112;2023-02-28T14:08:12;2.20;;;1.60;;
62030;SDS011;62035;52.094;5.112;2023-02-28T14:10:47;5.45;;;1.77;;
62030;SDS011;62035;52.094;5.112;2023-02-28T14:16:12;3.65;;;1.63;;
62030;SDS011;62035;52.094;5.112;2023-02-28T14:18:48;4.20;;;1.95;;
62030;SDS011;62035;52.094;5.112;2023-02-28T14:21:22;3.72;;;1.67;;
62030;SDS011;62035;52.094;5.112;2023-02-28T14:24:09;6.82;;;1.90;;
62030;SDS011;62035;52.094;5.112;2023-02-28T14:27:20;2.72;;;1.80;;
62030;SDS011;62035;52.094;5.112;2023-02-28T14:30:08;3.65;;;1.70;;
62030;SDS011;62035;52.094;5.112;2023-02-28T14:33:16;3.47;;;1.67;;
62030;SDS011;62035;52.094;5.112;2023-02-28T14:36:10;5.22;;;2.08;;
62030;SDS011;62035;52.094;5.112;2023-02-28T14:38:46;3.15;;;1.88;;
62030;SDS011;62035;52.094;5.112;2023-02-28T14:41:21;5.53;;;1.70;;
62030;SDS011;62035;52.094;5.112;2023-02-28T14:43:56;4.45;;;2.13;;
62030;SDS011;62035;52.094;5.112;2023-02-28T14:46:28;4.22;;;1.95;;
62030;SDS011;62035;52.094;5.112;2023-02-28T14:49:04;3.10;;;1.80;;
62030;SDS011;62035;52.094;5.112;2023-02-28T14:51:34;2.72;;;1.85;;
62030;SDS011;62035;52.094;5.112;2023-02-28T14:54:02;9.30;;;3.60;;
62030;SDS011;62035;52.094;5.112;2023-02-28T14:56:33;4.00;;;2.20;;
62030;SDS011;62035;52.094;5.112;2023-02-28T15:01:34;3.08;;;1.95;;
62030;SDS011;62035;52.094;5.112;2023-02-28T15:04:02;3.67;;;2.17;;
62030;SDS011;62035;52.094;5.112;2023-02-28T15:06:33;4.82;;;1.83;;
62030;SDS011;62035;52.094;5.112;2023-02-28T15:09:07;3.92;;;1.80;;
62030;SDS011;62035;52.094;5.112;2023-02-28T15:11:38;3.40;;;2.17;;
62030;SDS011;62035;52.094;5.112;2023-02-28T15:14:06;4.50;;;2.03;;
62030;SDS011;62035;52.094;5.112;2023-02-28T15:16:45;3.90;;;2.13;;
62030;SDS011;62035;52.094;5.112;2023-02-28T15:19:20;4.35;;;2.10;;
62030;SDS011;62035;52.094;5.112;2023-02-28T15:21:54;5.65;;;1.80;;
62030;SDS011;62035;52.094;5.112;2023-02-28T15:24:31;3.65;;;1.80;;
62030;SDS011;62035;52.094;5.112;2023-02-28T15:27:06;2.47;;;1.73;;
62030;SDS011;62035;52.094;5.112;2023-02-28T15:29:42;2.38;;;1.65;;
62030;SDS011;62035;52.094;5.112;2023-02-28T15:32:23;3.75;;;1.77;;
62030;SDS011;62035;52.094;5.112;2023-02-28T15:34:55;2.47;;;1.90;;
62030;SDS011;62035;52.094;5.112;2023-02-28T15:37:26;4.20;;;2.30;;
62030;SDS011;62035;52.094;5.112;2023-02-28T15:40:04;5.03;;;1.67;;
62030;SDS011;62035;52.094;5.112;2023-02-28T15:42:42;3.75;;;2.00;;
62030;SDS011;62035;52.094;5.112;2023-02-28T15:45:27;2.30;;;1.73;;
62030;SDS011;62035;52.094;5.112;2023-02-28T15:48:04;2.90;;;1.77;;
62030;SDS011;62035;52.094;5.112;2023-02-28T15:50:33;4.70;;;2.10;;
62030;SDS011;62035;52.094;5.112;2023-02-28T15:53:01;5.50;;;2.20;;
62030;SDS011;62035;52.094;5.112;2023-02-28T15:55:30;3.05;;;2.00;;